sensor_id;sensor_type;location;lat;lon;timestamp;P1;durP1;ratioP1;P2;durP2;ratioP2
6902;SDS011;20232;49.408;8.702;2023-12-20T05:01:22;7.90;;;7.10;;
6902;SDS011;20232;49.408;8.702;2023-12-20T05:03:47;10.53;;;7.60;;
6902;SDS011;20232;49.408;8.702;2023-12-20T05:06:13;10.40;;;7.90;;
6902;SDS011;20232;49.408;8.702;2023-12-20T05:08:38;9.70;;;7.20;;
6902;SDS011;20232;49.408;8.702;2023-12-20T05:11:03;7.83;;;7.03;;
6902;SDS011;20232;49.408;8.702;2023-12-20T05:13:29;8.87;;;7.73;;
6902;SDS011;20232;49.408;8.702;2023-12-20T05:15:54;8.63;;;7.73;;
6902;SDS011;20232;49.408;8.702;2023-12-20T05:18:20;8.87;;;7.53;;
6902;SDS011;20232;49.408;8.702;2023-12-20T05:20:46;7.97;;;7.17;;
6902;SDS011;20232;49.408;8.702;2023-12-20T05:23:11;9.03;;;8.13;;
6902;SDS011;20232;49.408;8.702;2023-12-20T05:25:38;8.40;;;7.60;;
6902;SDS011;20232;49.408;8.702;2023-12-20T05:28:04;9.43;;;7.60;;
6902;SDS011;20232;49.408;8.702;2023-12-20T05:30:29;8.40;;;7.40;;
6902;SDS011;20232;49.408;8.702;2023-12-20T05:32:55;8.70;;;7.80;;
6902;SDS011;20232;49.408;8.702;2023-12-20T05:35:20;8.83;;;7.93;;
6902;SDS011;20232;49.408;8.702;2023-12-20T05:37:47;9.00;;;7.87;;
6902;SDS011;20232;49.408;8.702;2023-12-20T05:40:12;8.40;;;7.43;;
6902;SDS011;20232;49.408;8.702;2023-12-20T05:42:38;8.40;;;7.60;;
6902;SDS011;20232;49.408;8.702;2023-12-20T05:45:04;9.83;;;8.10;;
6902;SDS011;20232;49.408;8.702;2023-12-20T05:47:30;8.40;;;7.50;;
6902;SDS011;20232;49.408;8.702;2023-12-20T05:49:55;8.20;;;7.40;;
6902;SDS011;20232;49.408;8.702;2023-12-20T05:52:21;8.23;;;7.40;;
6902;SDS011;20232;49.408;8.702;2023-12-20T05:54:46;7.43;;;6.73;;
6902;SDS011;20232;49.408;8.702;2023-12-20T05:57:12;6.90;;;6.20;;
6902;SDS011;20232;49.408;8.702;2023-12-20T05:59:37;8.80;;;7.17;;
6902;SDS011;20232;49.408;8.702;2023-12-20T06:02:03;9.33;;;7.60;;
6902;SDS011;20232;49.408;8.702;2023-12-20T06:04:29;7.50;;;6.70;;
6902;SDS011;20232;49.408;8.702;2023-12-20T06:06:55;7.77;;;6.90;;
6902;SDS011;20232;49.408;8.702;2023-12-20T06:09:20;8.40;;;7.03;;
6902;SDS011;20232;49.408;8.702;2023-12-20T06:11:46;11.17;;;8.00;;
6902;SDS011;20232;49.408;8.702;2023-12-20T06:14:11;9.33;;;7.50;;
6902;SDS011;20232;49.408;8.702;2023-12-20T06:16:36;9.20;;;7.57;;
6902;SDS011;20232;49.408;8.702;2023-12-20T06:19:02;9.90;;;7.47;;
6902;SDS011;20232;49.408;8.702;2023-12-20T06:21:27;8.20;;;7.30;;
6902;SDS011;20232;49.408;8.702;2023-12-20T06:23:53;7.67;;;6.87;;
6902;SDS011;20232;49.408;8.702;2023-12-20T06:26:18;8.40;;;7.50;;
6902;SDS011;20232;49.408;8.702;2023-12-20T06:28:44;7.67;;;6.90;;
6902;SDS011;20232;49.408;8.702;2023-12-20T06:31:09;7.07;;;6.37;;
6902;SDS011;20232;49.408;8.702;2023-12-20T06:33:34;7.50;;;6.53;;
6902;SDS011;20232;49.408;8.702;2023-12-20T06:36:01;7.93;;;6.60;;
6902;SDS011;20232;49.408;8.702;2023-12-20T06:38:26;7.17;;;6.43;;
6902;SDS011;20232;49.408;8.702;2023-12-20T06:40:52;7.37;;;6.57;;
6902;SDS011;20232;49.408;8.702;2023-12-20T06:43:17;7.67;;;6.53;;
6902;SDS011;20232;49.408;8.702;2023-12-20T06:45:42;7.23;;;6.47;;
6902;SDS011;20232;49.408;8.702;2023-12-20T06:48:08;8.50;;;5.67;;
6902;SDS011;20232;49.408;8.702;2023-12-20T06:50:36;6.00;;;5.40;;
6902;SDS011;20232;49.408;8.702;2023-12-20T06:53:05;5.27;;;4.87;;
6902;SDS011;20232;49.408;8.702;2023-12-20T06:55:32;5.10;;;4.60;;
6902;SDS011;20232;49.408;8.702;2023-12-20T06:57:58;5.47;;;4.60;;
6902;SDS011;20232;49.408;8.702;2023-12-20T07:00:24;5.23;;;4.73;;
6902;SDS011;20232;49.408;8.702;2023-12-20T07:02:49;5.03;;;4.63;;
6902;SDS011;20232;49.408;8.702;2023-12-20T07:05:17;4.97;;;4.50;;
6902;SDS011;20232;49.408;8.702;2023-12-20T07:07:45;5.27;;;4.77;;
6902;SDS011;20232;49.408;8.702;2023-12-20T07:10:11;5.53;;;4.33;;
6902;SDS011;20232;49.408;8.702;2023-12-20T07:12:37;5.47;;;4.40;;
6902;SDS011;20232;49.408;8.702;2023-12-20T07:15:03;4.40;;;3.60;;
6902;SDS011;20232;49.408;8.702;2023-12-20T07:17:28;3.70;;;3.40;;
6902;SDS011;20232;49.408;8.702;2023-12-20T07:19:54;4.37;;;3.80;;
6902;SDS011;20232;49.408;8.702;2023-12-20T07:22:19;3.80;;;3.47;;
6902;SDS011;20232;49.408;8.702;2023-12-20T07:24:44;4.13;;;3.63;;
6902;SDS011;20232;49.408;8.702;2023-12-20T07:27:11;4.73;;;3.60;;
6902;SDS011;20232;49.408;8.702;2023-12-20T07:29:36;6.03;;;3.63;;
6902;SDS011;20232;49.408;8.702;2023-12-20T07:32:01;4.57;;;3.77;;
6902;SDS011;20232;49.408;8.702;2023-12-20T07:34:27;4.80;;;3.90;;
6902;SDS011;20232;49.408;8.702;2023-12-20T07:36:52;5.20;;;4.50;;
6902;SDS011;20232;49.408;8.702;2023-12-20T07:39:18;5.50;;;4.20;;
6902;SDS011;20232;49.408;8.702;2023-12-20T07:41:43;6.20;;;3.77;;
6902;SDS011;20232;49.408;8.702;2023-12-20T07:44:09;3.67;;;3.30;;
6902;SDS011;20232;49.408;8.702;2023-12-20T07:46:35;3.40;;;3.10;;
6902;SDS011;20232;49.408;8.702;2023-12-20T07:49:00;4.40;;;3.43;;
6902;SDS011;20232;49.408;8.702;2023-12-20T07:51:25;4.63;;;3.60;;
6902;SDS011;20232;49.408;8.702;2023-12-20T07:53:51;5.10;;;3.30;;
6902;SDS011;20232;49.408;8.702;2023-12-20T07:56:17;5.53;;;4.07;;
6902;SDS011;20232;49.408;8.702;2023-12-20T07:58:43;4.27;;;3.73;;
6902;SDS011;20232;49.408;8.702;2023-12-20T08:01:10;4.40;;;4.00;;
6902;SDS011;20232;49.408;8.702;2023-12-20T08:03:36;4.30;;;3.63;;
6902;SDS011;20232;49.408;8.702;2023-12-20T08:06:01;5.03;;;3.83;;
6902;SDS011;20232;49.408;8.702;2023-12-20T08:08:27;4.83;;;4.33;;
6902;SDS011;20232;49.408;8.702;2023-12-20T08:10:53;5.97;;;4.30;;
6902;SDS011;20232;49.408;8.702;2023-12-20T08:13:18;5.33;;;4.37;;
6902;SDS011;20232;49.408;8.702;2023-12-20T08:15:44;4.30;;;3.90;;
6902;SDS011;20232;49.408;8.702;2023-12-20T08:18:09;4.67;;;4.20;;
6902;SDS011;20232;49.408;8.702;2023-12-20T08:20:34;4.90;;;4.40;;
6902;SDS011;20232;49.408;8.702;2023-12-20T08:23:00;6.10;;;4.77;;
6902;SDS011;20232;49.408;8.702;2023-12-20T08:25:25;8.37;;;5.20;;
6902;SDS011;20232;49.408;8.702;2023-12-20T08:27:51;3.87;;;3.57;;
6902;SDS011;20232;49.408;8.702;2023-12-20T08:30:16;6.70;;;4.03;;
6902;SDS011;20232;49.408;8.702;2023-12-20T08:32:45;6.00;;;3.83;;
6902;SDS011;20232;49.408;8.702;2023-12-20T08:35:11;3.27;;;2.80;;
6902;SDS011;20232;49.408;8.702;2023-12-20T08:37:36;4.27;;;3.23;;
6902;SDS011;20232;49.408;8.702;2023-12-20T08:40:02;3.13;;;2.83;;
6902;SDS011;20232;49.408;8.702;2023-12-20T08:42:27;5.23;;;3.60;;
6902;SDS011;20232;49.408;8.702;2023-12-20T08:44:56;6.13;;;3.43;;
6902;SDS011;20232;49.408;8.702;2023-12-20T08:47:24;4.50;;;2.97;;
6902;SDS011;20232;49.408;8.702;2023-12-20T08:49:50;5.93;;;3.73;;
6902;SDS011;20232;49.408;8.702;2023-12-20T08:52:15;5.87;;;3.47;;
6902;SDS011;20232;49.408;8.702;2023-12-20T08:54:41;5.63;;;3.40;;
6902;SDS011;20232;49.408;8.702;2023-12-20T08:57:06;4.17;;;3.30;;
6902;SDS011;20232;49.408;8.702;2023-12-20T08:59:32;4.60;;;3.50;;
6902;SDS011;20232;49.408;8.702;2023-12-20T09:01:57;4.73;;;3.80;;
6902;SDS011;20232;49.408;8.702;2023-12-20T09:04:23;5.17;;;3.97;;
6902;SDS011;20232;49.408;8.702;2023-12-20T09:06:48;5.03;;;3.77;;
6902;SDS011;20232;49.408;8.702;2023-12-20T09:09:14;6.57;;;4.23;;
6902;SDS011;20232;49.408;8.702;2023-12-20T09:11:39;5.87;;;4.37;;
6902;SDS011;20232;49.408;8.702;2023-12-20T09:14:05;7.33;;;4.17;;
6902;SDS011;20232;49.408;8.702;2023-12-20T09:16:30;4.97;;;4.07;;
6902;SDS011;20232;49.408;8.702;2023-12-20T09:18:56;5.23;;;3.97;;
6902;SDS011;20232;49.408;8.702;2023-12-20T09:21:22;4.23;;;3.63;;
6902;SDS011;20232;49.408;8.702;2023-12-20T09:23:48;7.60;;;4.00;;
6902;SDS011;20232;49.408;8.702;2023-12-20T09:26:13;6.83;;;3.67;;
6902;SDS011;20232;49.408;8.702;2023-12-20T09:28:38;5.90;;;3.77;;
6902;SDS011;20232;49.408;8.702;2023-12-20T09:31:05;3.93;;;3.63;;
6902;SDS011;20232;49.408;8.702;2023-12-20T09:33:31;6.43;;;3.57;;
6902;SDS011;20232;49.408;8.702;2023-12-20T09:35:57;6.50;;;3.70;;
6902;SDS011;20232;49.408;8.702;2023-12-20T09:38:23;4.70;;;4.03;;
6902;SDS011;20232;49.408;8.702;2023-12-20T09:40:48;4.97;;;3.50;;
6902;SDS011;20232;49.408;8.702;2023-12-20T09:43:14;4.80;;;3.43;;
6902;SDS011;20232;49.408;8.702;2023-12-20T09:45:44;4.67;;;3.30;;
6902;SDS011;20232;49.408;8.702;2023-12-20T09:48:11;6.97;;;3.30;;
6902;SDS011;20232;49.408;8.702;2023-12-20T09:50:37;8.50;;;4.00;;
6902;SDS011;20232;49.408;8.702;2023-12-20T09:53:02;4.03;;;3.50;;
6902;SDS011;20232;49.408;8.702;2023-12-20T09:55:29;3.67;;;3.03;;
6902;SDS011;20232;49.408;8.702;2023-12-20T09:57:55;5.70;;;3.13;;
6902;SDS011;20232;49.408;8.702;2023-12-20T10:00:21;3.50;;;3.20;;
6902;SDS011;20232;49.408;8.702;2023-12-20T10:05:24;5.67;;;3.00;;
6902;SDS011;20232;49.408;8.702;2023-12-20T10:07:52;4.70;;;3.50;;
6902;SDS011;20232;49.408;8.702;2023-12-20T10:10:17;5.00;;;3.00;;
6902;SDS011;20232;49.408;8.702;2023-12-20T10:13:00;3.03;;;2.70;;
6902;SDS011;20232;49.408;8.702;2023-12-20T10:15:26;7.90;;;3.03;;
6902;SDS011;20232;49.408;8.702;2023-12-20T10:17:51;3.80;;;2.67;;
6902;SDS011;20232;49.408;8.702;2023-12-20T10:20:17;8.50;;;2.60;;
6902;SDS011;20232;49.408;8.702;2023-12-20T10:22:42;4.80;;;2.73;;
6902;SDS011;20232;49.408;8.702;2023-12-20T10:25:08;4.43;;;2.30;;
6902;SDS011;20232;49.408;8.702;2023-12-20T10:27:33;5.17;;;2.53;;
6902;SDS011;20232;49.408;8.702;2023-12-20T10:29:58;3.57;;;2.37;;
6902;SDS011;20232;49.408;8.702;2023-12-20T10:32:25;4.73;;;2.50;;
6902;SDS011;20232;49.408;8.702;2023-12-20T10:34:52;4.43;;;2.70;;
6902;SDS011;20232;49.408;8.702;2023-12-20T10:37:18;6.63;;;2.70;;
6902;SDS011;20232;49.408;8.702;2023-12-20T10:39:43;5.10;;;2.53;;
6902;SDS011;20232;49.408;8.702;2023-12-20T10:42:12;4.63;;;2.50;;
6902;SDS011;20232;49.408;8.702;2023-12-20T10:44:38;6.80;;;3.13;;
6902;SDS011;20232;49.408;8.702;2023-12-20T10:47:04;5.90;;;2.63;;
6902;SDS011;20232;49.408;8.702;2023-12-20T10:49:30;6.37;;;2.80;;
6902;SDS011;20232;49.408;8.702;2023-12-20T10:51:57;5.17;;;2.30;;
6902;SDS011;20232;49.408;8.702;2023-12-20T10:54:24;9.73;;;2.60;;
6902;SDS011;20232;49.408;8.702;2023-12-20T10:56:50;6.03;;;2.43;;
6902;SDS011;20232;49.408;8.702;2023-12-20T10:59:17;7.57;;;2.50;;
6902;SDS011;20232;49.408;8.702;2023-12-20T11:01:44;6.17;;;2.30;;
6902;SDS011;20232;49.408;8.702;2023-12-20T11:04:11;7.67;;;2.87;;
6902;SDS011;20232;49.408;8.702;2023-12-20T11:06:47;7.90;;;2.67;;
6902;SDS011;20232;49.408;8.702;2023-12-20T11:14:52;3.83;;;2.20;;
6902;SDS011;20232;49.408;8.702;2023-12-20T11:17:19;4.80;;;2.60;;
6902;SDS011;20232;49.408;8.702;2023-12-20T11:22:25;5.83;;;2.60;;
6902;SDS011;20232;49.408;8.702;2023-12-20T11:24:52;5.83;;;2.40;;
6902;SDS011;20232;49.408;8.702;2023-12-20T11:27:18;4.37;;;2.90;;
6902;SDS011;20232;49.408;8.702;2023-12-20T11:30:05;3.97;;;2.50;;
6902;SDS011;20232;49.408;8.702;2023-12-20T11:32:33;5.10;;;2.70;;
6902;SDS011;20232;49.408;8.702;2023-12-20T11:37:31;12.17;;;3.30;;
6902;SDS011;20232;49.408;8.702;2023-12-20T11:40:01;8.27;;;2.90;;
6902;SDS011;20232;49.408;8.702;2023-12-20T11:42:32;4.80;;;3.53;;
6902;SDS011;20232;49.408;8.702;2023-12-20T11:45:14;7.67;;;3.37;;
6902;SDS011;20232;49.408;8.702;2023-12-20T11:47:44;6.53;;;2.80;;
6902;SDS011;20232;49.408;8.702;2023-12-20T11:50:11;5.10;;;3.00;;
6902;SDS011;20232;49.408;8.702;2023-12-20T11:52:37;7.77;;;2.83;;
6902;SDS011;20232;49.408;8.702;2023-12-20T11:55:02;6.10;;;3.27;;
6902;SDS011;20232;49.408;8.702;2023-12-20T11:57:29;5.93;;;3.30;;
6902;SDS011;20232;49.408;8.702;2023-12-20T11:59:55;4.27;;;2.80;;
6902;SDS011;20232;49.408;8.702;2023-12-20T12:02:21;6.37;;;2.80;;
6902;SDS011;20232;49.408;8.702;2023-12-20T12:04:48;6.53;;;3.00;;
6902;SDS011;20232;49.408;8.702;2023-12-20T12:07:13;4.80;;;3.00;;
6902;SDS011;20232;49.408;8.702;2023-12-20T12:09:39;7.30;;;3.30;;
6902;SDS011;20232;49.408;8.702;2023-12-20T12:12:04;6.07;;;3.40;;
6902;SDS011;20232;49.408;8.702;2023-12-20T12:14:30;7.37;;;3.00;;
6902;SDS011;20232;49.408;8.702;2023-12-20T12:16:56;6.77;;;3.17;;
6902;SDS011;20232;49.408;8.702;2023-12-20T12:19:22;5.87;;;3.10;;
6902;SDS011;20232;49.408;8.702;2023-12-20T12:21:48;8.13;;;3.10;;
6902;SDS011;20232;49.408;8.702;2023-12-20T12:24:14;4.37;;;3.10;;
6902;SDS011;20232;49.408;8.702;2023-12-20T12:26:40;9.53;;;3.30;;
6902;SDS011;20232;49.408;8.702;2023-12-20T12:29:08;4.43;;;3.23;;
6902;SDS011;20232;49.408;8.702;2023-12-20T12:31:34;5.73;;;3.10;;
6902;SDS011;20232;49.408;8.702;2023-12-20T12:34:00;4.83;;;2.87;;
6902;SDS011;20232;49.408;8.702;2023-12-20T12:36:27;7.40;;;3.17;;
6902;SDS011;20232;49.408;8.702;2023-12-20T12:38:53;5.87;;;3.30;;
6902;SDS011;20232;49.408;8.702;2023-12-20T12:41:22;6.37;;;3.30;;
6902;SDS011;20232;49.408;8.702;2023-12-20T12:43:47;6.83;;;3.03;;
6902;SDS011;20232;49.408;8.702;2023-12-20T12:46:13;8.57;;;3.80;;
6902;SDS011;20232;49.408;8.702;2023-12-20T12:48:38;10.80;;;3.50;;
6902;SDS011;20232;49.408;8.702;2023-12-20T12:51:04;7.37;;;3.43;;
6902;SDS011;20232;49.408;8.702;2023-12-20T12:53:29;5.10;;;3.20;;
6902;SDS011;20232;49.408;8.702;2023-12-20T12:55:55;7.90;;;3.53;;
6902;SDS011;20232;49.408;8.702;2023-12-20T12:58:20;7.60;;;3.70;;
6902;SDS011;20232;49.408;8.702;2023-12-20T13:00:46;5.30;;;3.23;;
6902;SDS011;20232;49.408;8.702;2023-12-20T13:03:11;5.53;;;3.23;;
6902;SDS011;20232;49.408;8.702;2023-12-20T13:05:37;8.53;;;3.40;;
6902;SDS011;20232;49.408;8.702;2023-12-20T13:08:03;6.00;;;3.73;;
6902;SDS011;20232;49.408;8.702;2023-12-20T13:10:28;7.63;;;3.07;;
6902;SDS011;20232;49.408;8.702;2023-12-20T13:12:54;7.20;;;3.27;;
6902;SDS011;20232;49.408;8.702;2023-12-20T13:15:19;5.67;;;3.00;;
6902;SDS011;20232;49.408;8.702;2023-12-20T13:17:45;7.10;;;3.07;;
6902;SDS011;20232;49.408;8.702;2023-12-20T13:20:11;6.00;;;3.10;;
6902;SDS011;20232;49.408;8.702;2023-12-20T13:22:36;9.30;;;3.60;;
6902;SDS011;20232;49.408;8.702;2023-12-20T13:25:02;5.97;;;3.30;;
6902;SDS011;20232;49.408;8.702;2023-12-20T13:27:28;6.77;;;3.13;;
6902;SDS011;20232;49.408;8.702;2023-12-20T13:29:53;5.57;;;3.23;;
6902;SDS011;20232;49.408;8.702;2023-12-20T13:32:19;5.40;;;3.17;;
6902;SDS011;20232;49.408;8.702;2023-12-20T13:34:45;5.57;;;3.37;;
6902;SDS011;20232;49.408;8.702;2023-12-20T13:37:10;8.70;;;3.40;;
6902;SDS011;20232;49.408;8.702;2023-12-20T13:39:36;6.70;;;3.60;;
6902;SDS011;20232;49.408;8.702;2023-12-20T13:42:01;5.53;;;3.17;;
6902;SDS011;20232;49.408;8.702;2023-12-20T13:44:27;6.00;;;2.90;;
6902;SDS011;20232;49.408;8.702;2023-12-20T13:46:52;6.07;;;3.57;;
6902;SDS011;20232;49.408;8.702;2023-12-20T13:49:18;4.37;;;2.90;;
6902;SDS011;20232;49.408;8.702;2023-12-20T13:51:43;9.80;;;3.63;;
6902;SDS011;20232;49.408;8.702;2023-12-20T13:54:08;7.30;;;3.33;;
6902;SDS011;20232;49.408;8.702;2023-12-20T13:56:36;7.53;;;3.20;;
6902;SDS011;20232;49.408;8.702;2023-12-20T13:59:01;6.40;;;3.17;;
6902;SDS011;20232;49.408;8.702;2023-12-20T14:01:26;9.40;;;3.43;;
6902;SDS011;20232;49.408;8.702;2023-12-20T14:03:52;7.33;;;5.03;;
6902;SDS011;20232;49.408;8.702;2023-12-20T14:06:17;9.57;;;3.30;;
6902;SDS011;20232;49.408;8.702;2023-12-20T14:08:43;6.97;;;3.60;;
6902;SDS011;20232;49.408;8.702;2023-12-20T14:11:08;6.13;;;3.30;;
6902;SDS011;20232;49.408;8.702;2023-12-20T14:13:34;4.80;;;2.97;;
6902;SDS011;20232;49.408;8.702;2023-12-20T14:15:59;6.30;;;3.30;;
6902;SDS011;20232;49.408;8.702;2023-12-20T14:18:25;7.87;;;3.23;;
6902;SDS011;20232;49.408;8.702;2023-12-20T14:20:51;6.00;;;2.90;;
6902;SDS011;20232;49.408;8.702;2023-12-20T14:23:16;5.97;;;2.80;;
6902;SDS011;20232;49.408;8.702;2023-12-20T14:25:42;7.90;;;3.87;;
6902;SDS011;20232;49.408;8.702;2023-12-20T14:28:07;8.30;;;2.90;;
6902;SDS011;20232;49.408;8.702;2023-12-20T14:30:33;10.30;;;3.43;;
6902;SDS011;20232;49.408;8.702;2023-12-20T14:33:00;6.03;;;3.30;;
6902;SDS011;20232;49.408;8.702;2023-12-20T14:35:25;5.50;;;3.17;;
6902;SDS011;20232;49.408;8.702;2023-12-20T14:37:50;6.67;;;3.07;;
6902;SDS011;20232;49.408;8.702;2023-12-20T14:40:16;6.90;;;3.23;;
6902;SDS011;20232;49.408;8.702;2023-12-20T14:42:42;6.33;;;3.33;;
6902;SDS011;20232;49.408;8.702;2023-12-20T14:45:08;8.60;;;3.30;;
6902;SDS011;20232;49.408;8.702;2023-12-20T14:47:34;5.70;;;2.93;;
6902;SDS011;20232;49.408;8.702;2023-12-20T14:50:02;7.53;;;3.30;;
6902;SDS011;20232;49.408;8.702;2023-12-20T14:52:33;7.80;;;2.97;;
6902;SDS011;20232;49.408;8.702;2023-12-20T14:54:59;7.47;;;3.50;;
6902;SDS011;20232;49.408;8.702;2023-12-20T14:57:25;7.20;;;3.70;;
6902;SDS011;20232;49.408;8.702;2023-12-20T14:59:51;7.13;;;3.50;;
6902;SDS011;20232;49.408;8.702;2023-12-20T15:02:17;7.13;;;3.50;;
6902;SDS011;20232;49.408;8.702;2023-12-20T15:04:42;7.20;;;3.00;;
6902;SDS011;20232;49.408;8.702;2023-12-20T15:07:08;7.67;;;3.70;;
6902;SDS011;20232;49.408;8.702;2023-12-20T15:09:33;5.47;;;2.70;;
6902;SDS011;20232;49.408;8.702;2023-12-20T15:11:59;5.30;;;3.00;;
6902;SDS011;20232;49.408;8.702;2023-12-20T15:14:24;6.97;;;3.40;;
6902;SDS011;20232;49.408;8.702;2023-12-20T15:16:50;6.20;;;3.40;;
6902;SDS011;20232;49.408;8.702;2023-12-20T15:19:16;11.10;;;3.73;;
6902;SDS011;20232;49.408;8.702;2023-12-20T15:21:42;4.63;;;2.77;;
6902;SDS011;20232;49.408;8.702;2023-12-20T15:24:08;4.07;;;2.93;;
6902;SDS011;20232;49.408;8.702;2023-12-20T15:26:40;5.97;;;3.10;;
6902;SDS011;20232;49.408;8.702;2023-12-20T15:29:06;9.70;;;3.17;;
6902;SDS011;20232;49.408;8.702;2023-12-20T15:31:32;7.37;;;2.50;;
6902;SDS011;20232;49.408;8.702;2023-12-20T15:33:58;5.47;;;2.50;;
6902;SDS011;20232;49.408;8.702;2023-12-20T15:36:24;3.67;;;2.73;;
6902;SDS011;20232;49.408;8.702;2023-12-20T15:38:51;5.53;;;2.87;;
6902;SDS011;20232;49.408;8.702;2023-12-20T15:41:20;5.83;;;2.57;;
6902;SDS011;20232;49.408;8.702;2023-12-20T15:43:46;7.30;;;2.63;;
6902;SDS011;20232;49.408;8.702;2023-12-20T15:46:12;6.17;;;2.73;;
6902;SDS011;20232;49.408;8.702;2023-12-20T15:48:37;6.03;;;2.90;;
6902;SDS011;20232;49.408;8.702;2023-12-20T15:51:06;6.87;;;3.80;;
6902;SDS011;20232;49.408;8.702;2023-12-20T15:53:32;6.50;;;3.17;;
6902;SDS011;20232;49.408;8.702;2023-12-20T15:55:57;6.23;;;2.83;;
6902;SDS011;20232;49.408;8.702;2023-12-20T15:58:23;5.70;;;2.67;;
6902;SDS011;20232;49.408;8.702;2023-12-20T16:00:49;7.83;;;3.50;;
6902;SDS011;20232;49.408;8.702;2023-12-20T16:03:14;10.07;;;3.23;;
6902;SDS011;20232;49.408;8.702;2023-12-20T16:05:39;7.00;;;2.80;;
6902;SDS011;20232;49.408;8.702;2023-12-20T16:08:05;5.80;;;2.63;;
6902;SDS011;20232;49.408;8.702;2023-12-20T16:10:31;6.73;;;3.30;;
6902;SDS011;20232;49.408;8.702;2023-12-20T16:12:56;9.10;;;3.00;;
6902;SDS011;20232;49.408;8.702;2023-12-20T16:15:22;8.23;;;3.33;;
6902;SDS011;20232;49.408;8.702;2023-12-20T16:17:47;5.03;;;2.70;;
6902;SDS011;20232;49.408;8.702;2023-12-20T16:20:12;8.90;;;2.97;;
6902;SDS011;20232;49.408;8.702;2023-12-20T16:22:39;6.93;;;2.83;;
6902;SDS011;20232;49.408;8.702;2023-12-20T16:25:05;7.13;;;2.93;;
6902;SDS011;20232;49.408;8.702;2023-12-20T16:27:31;5.20;;;2.77;;
6902;SDS011;20232;49.408;8.702;2023-12-20T16:29:57;5.50;;;2.90;;
6902;SDS011;20232;49.408;8.702;2023-12-20T16:32:22;9.77;;;3.40;;
6902;SDS011;20232;49.408;8.702;2023-12-20T16:34:47;8.00;;;3.47;;
6902;SDS011;20232;49.408;8.702;2023-12-20T16:37:13;7.20;;;2.97;;
6902;SDS011;20232;49.408;8.702;2023-12-20T16:39:38;8.90;;;3.27;;
6902;SDS011;20232;49.408;8.702;2023-12-20T16:42:04;7.77;;;3.00;;
6902;SDS011;20232;49.408;8.702;2023-12-20T16:44:30;8.80;;;3.10;;
6902;SDS011;20232;49.408;8.702;2023-12-20T16:46:55;7.90;;;3.53;;
6902;SDS011;20232;49.408;8.702;2023-12-20T16:49:21;11.50;;;3.83;;
6902;SDS011;20232;49.408;8.702;2023-12-20T16:51:46;9.27;;;3.20;;
6902;SDS011;20232;49.408;8.702;2023-12-20T16:54:12;7.37;;;3.37;;
6902;SDS011;20232;49.408;8.702;2023-12-20T16:56:37;7.00;;;3.27;;
6902;SDS011;20232;49.408;8.702;2023-12-20T16:59:03;7.97;;;3.63;;
6902;SDS011;20232;49.408;8.702;2023-12-20T17:01:29;10.20;;;3.80;;
6902;SDS011;20232;49.408;8.702;2023-12-20T17:03:54;8.23;;;3.57;;
6902;SDS011;20232;49.408;8.702;2023-12-20T17:06:20;8.57;;;3.53;;
6902;SDS011;20232;49.408;8.702;2023-12-20T17:08:45;8.17;;;3.30;;
6902;SDS011;20232;49.408;8.702;2023-12-20T17:11:11;5.40;;;3.73;;
6902;SDS011;20232;49.408;8.702;2023-12-20T17:13:36;9.17;;;3.67;;
6902;SDS011;20232;49.408;8.702;2023-12-20T17:16:01;5.83;;;3.63;;
6902;SDS011;20232;49.408;8.702;2023-12-20T17:18:27;10.30;;;3.93;;
6902;SDS011;20232;49.408;8.702;2023-12-20T17:20:52;13.10;;;3.90;;
6902;SDS011;20232;49.408;8.702;2023-12-20T17:23:18;9.93;;;3.93;;
6902;SDS011;20232;49.408;8.702;2023-12-20T17:25:43;6.97;;;3.23;;
6902;SDS011;20232;49.408;8.702;2023-12-20T17:28:08;8.80;;;3.77;;
6902;SDS011;20232;49.408;8.702;2023-12-20T17:30:34;8.03;;;3.50;;
6902;SDS011;20232;49.408;8.702;2023-12-20T17:33:00;6.97;;;3.40;;
6902;SDS011;20232;49.408;8.702;2023-12-20T17:35:25;6.97;;;3.40;;
6902;SDS011;20232;49.408;8.702;2023-12-20T17:37:51;7.37;;;3.40;;
6902;SDS011;20232;49.408;8.702;2023-12-20T17:40:19;7.80;;;3.80;;
6902;SDS011;20232;49.408;8.702;2023-12-20T17:42:45;7.43;;;3.20;;
6902;SDS011;20232;49.408;8.702;2023-12-20T17:45:10;6.43;;;3.03;;
6902;SDS011;20232;49.408;8.702;2023-12-20T17:47:40;8.33;;;3.20;;
6902;SDS011;20232;49.408;8.702;2023-12-20T17:50:06;8.00;;;3.10;;
6902;SDS011;20232;49.408;8.702;2023-12-20T17:52:31;5.27;;;3.57;;
6902;SDS011;20232;49.408;8.702;2023-12-20T17:54:57;11.40;;;3.63;;
6902;SDS011;20232;49.408;8.702;2023-12-20T17:57:22;8.23;;;4.20;;
6902;SDS011;20232;49.408;8.702;2023-12-20T17:59:51;6.63;;;3.80;;
6902;SDS011;20232;49.408;8.702;2023-12-20T18:02:17;7.83;;;3.60;;
6902;SDS011;20232;49.408;8.702;2023-12-20T18:04:43;7.90;;;3.30;;
6902;SDS011;20232;49.408;8.702;2023-12-20T18:07:10;8.87;;;3.30;;
6902;SDS011;20232;49.408;8.702;2023-12-20T18:09:36;8.90;;;4.00;;
6902;SDS011;20232;49.408;8.702;2023-12-20T18:12:02;9.73;;;3.47;;
6902;SDS011;20232;49.408;8.702;2023-12-20T18:14:27;10.63;;;3.73;;
6902;SDS011;20232;49.408;8.702;2023-12-20T18:16:53;6.17;;;3.10;;
6902;SDS011;20232;49.408;8.702;2023-12-20T18:19:19;10.73;;;3.57;;
6902;SDS011;20232;49.408;8.702;2023-12-20T18:21:44;7.47;;;3.83;;
6902;SDS011;20232;49.408;8.702;2023-12-20T18:24:09;5.83;;;3.63;;
6902;SDS011;20232;49.408;8.702;2023-12-20T18:26:35;8.40;;;3.50;;
6902;SDS011;20232;49.408;8.702;2023-12-20T18:29:06;6.57;;;3.60;;
6902;SDS011;20232;49.408;8.702;2023-12-20T18:31:32;9.83;;;3.33;;
6902;SDS011;20232;49.408;8.702;2023-12-20T18:33:57;11.80;;;3.40;;
6902;SDS011;20232;49.408;8.702;2023-12-20T18:36:23;8.77;;;3.83;;
6902;SDS011;20232;49.408;8.702;2023-12-20T18:38:48;6.63;;;3.20;;
6902;SDS011;20232;49.408;8.702;2023-12-20T18:41:14;9.27;;;3.47;;
6902;SDS011;20232;49.408;8.702;2023-12-20T18:43:40;8.63;;;3.57;;
6902;SDS011;20232;49.408;8.702;2023-12-20T18:46:05;5.17;;;3.40;;
6902;SDS011;20232;49.408;8.702;2023-12-20T18:48:31;9.67;;;3.90;;
6902;SDS011;20232;49.408;8.702;2023-12-20T18:50:58;7.83;;;3.63;;
6902;SDS011;20232;49.408;8.702;2023-12-20T18:53:24;8.67;;;3.60;;
6902;SDS011;20232;49.408;8.702;2023-12-20T18:55:49;7.83;;;3.17;;
6902;SDS011;20232;49.408;8.702;2023-12-20T18:58:14;7.07;;;3.30;;
6902;SDS011;20232;49.408;8.702;2023-12-20T19:00:40;10.27;;;3.23;;
6902;SDS011;20232;49.408;8.702;2023-12-20T19:03:05;6.20;;;3.13;;
6902;SDS011;20232;49.408;8.702;2023-12-20T19:05:32;8.07;;;3.67;;
6902;SDS011;20232;49.408;8.702;2023-12-20T19:07:57;5.37;;;2.97;;
6902;SDS011;20232;49.408;8.702;2023-12-20T19:10:23;10.20;;;3.57;;
6902;SDS011;20232;49.408;8.702;2023-12-20T19:12:48;5.43;;;3.27;;
6902;SDS011;20232;49.408;8.702;2023-12-20T19:15:14;7.93;;;3.27;;
6902;SDS011;20232;49.408;8.702;2023-12-20T19:17:40;7.13;;;3.37;;
6902;SDS011;20232;49.408;8.702;2023-12-20T19:20:06;8.10;;;4.10;;
6902;SDS011;20232;49.408;8.702;2023-12-20T19:22:32;9.93;;;4.00;;
6902;SDS011;20232;49.408;8.702;2023-12-20T19:24:59;7.23;;;3.50;;
6902;SDS011;20232;49.408;8.702;2023-12-20T19:27:30;5.60;;;3.47;;
6902;SDS011;20232;49.408;8.702;2023-12-20T19:30:02;6.83;;;3.90;;
6902;SDS011;20232;49.408;8.702;2023-12-20T19:32:28;8.63;;;3.70;;
6902;SDS011;20232;49.408;8.702;2023-12-20T19:34:53;5.53;;;3.57;;
6902;SDS011;20232;49.408;8.702;2023-12-20T19:37:18;12.90;;;3.87;;
6902;SDS011;20232;49.408;8.702;2023-12-20T19:39:44;10.07;;;3.80;;
6902;SDS011;20232;49.408;8.702;2023-12-20T19:42:10;9.57;;;3.43;;
6902;SDS011;20232;49.408;8.702;2023-12-20T19:44:35;6.00;;;3.80;;
6902;SDS011;20232;49.408;8.702;2023-12-20T19:47:01;7.40;;;3.17;;
6902;SDS011;20232;49.408;8.702;2023-12-20T19:49:27;10.33;;;3.50;;
6902;SDS011;20232;49.408;8.702;2023-12-20T19:51:52;6.23;;;3.57;;
6902;SDS011;20232;49.408;8.702;2023-12-20T19:54:17;12.20;;;3.30;;
6902;SDS011;20232;49.408;8.702;2023-12-20T19:56:43;8.13;;;3.43;;
6902;SDS011;20232;49.408;8.702;2023-12-20T19:59:08;9.07;;;4.23;;
6902;SDS011;20232;49.408;8.702;2023-12-20T20:01:35;6.13;;;3.90;;
6902;SDS011;20232;49.408;8.702;2023-12-20T20:04:04;12.33;;;3.60;;
6902;SDS011;20232;49.408;8.702;2023-12-20T20:06:30;8.53;;;3.83;;